createdAt,value
2023-06-18T00:00:54.647Z,44.61
2023-06-18T00:03:21.166Z,44.60
2023-06-18T00:05:47.557Z,44.67
2023-06-18T00:08:13.976Z,44.84
2023-06-18T00:10:40.389Z,45.02
2023-06-18T00:13:07.059Z,45.23
2023-06-18T00:15:33.475Z,45.13
2023-06-18T00:17:59.906Z,45.23
2023-06-18T00:20:26.362Z,45.35
2023-06-18T00:22:54.206Z,45.87
2023-06-18T00:25:21.061Z,45.83
2023-06-18T00:27:47.776Z,45.98
2023-06-18T00:30:15.114Z,46.17
2023-06-18T00:32:44.978Z,46.08
2023-06-18T00:35:12.574Z,46.06
2023-06-18T00:37:40.252Z,46.32
2023-06-18T00:40:07.462Z,46.93
2023-06-18T00:42:33.884Z,46.88
2023-06-18T00:45:00.339Z,46.83
2023-06-18T00:47:28.192Z,46.70
2023-06-18T00:49:56.475Z,46.57
2023-06-18T00:52:24.770Z,46.69
2023-06-18T00:54:51.526Z,46.54
2023-06-18T00:57:21.952Z,46.95
2023-06-18T00:59:51.552Z,46.61
2023-06-18T01:02:29.322Z,46.68
2023-06-18T01:04:58.818Z,46.68
2023-06-18T01:07:29.078Z,46.90
2023-06-18T01:10:08.118Z,46.72
2023-06-18T01:12:34.679Z,46.76
2023-06-18T01:15:01.949Z,47.17
2023-06-18T01:17:30.557Z,47.16
2023-06-18T01:20:11.662Z,47.50
2023-06-18T01:22:47.444Z,47.61
2023-06-18T01:25:17.586Z,47.21
2023-06-18T01:27:47.682Z,47.35
2023-06-18T01:30:15.175Z,47.86
2023-06-18T01:32:41.797Z,47.75
2023-06-18T01:35:15.976Z,47.97
2023-06-18T01:38:21.331Z,48.15
2023-06-18T01:40:56.850Z,48.29
2023-06-18T01:43:48.305Z,48.53
2023-06-18T01:46:24.494Z,48.89
2023-06-18T01:49:04.609Z,48.63
2023-06-18T01:51:32.843Z,48.42
2023-06-18T01:54:02.871Z,48.39
2023-06-18T01:56:29.598Z,48.44
2023-06-18T01:58:56.957Z,48.35
2023-06-18T02:01:23.560Z,48.66
2023-06-18T02:03:50.331Z,48.73
2023-06-18T02:06:16.901Z,49.44
2023-06-18T02:08:43.329Z,49.61
2023-06-18T02:11:10.607Z,49.72
2023-06-18T02:13:38.166Z,49.85
2023-06-18T02:16:04.839Z,50.00
2023-06-18T02:18:32.154Z,50.24
2023-06-18T02:20:59.529Z,50.24
2023-06-18T02:23:27.374Z,50.57
2023-06-18T02:25:53.752Z,50.43
2023-06-18T02:28:20.275Z,50.75
2023-06-18T02:30:47.600Z,51.14
2023-06-18T02:33:17.589Z,51.18
2023-06-18T02:35:44.204Z,51.15
2023-06-18T02:38:10.798Z,50.64
2023-06-18T02:40:37.189Z,51.07
2023-06-18T02:43:06.807Z,51.20
2023-06-18T02:45:33.432Z,51.55
2023-06-18T02:47:59.935Z,51.29
2023-06-18T02:50:26.850Z,51.48
2023-06-18T02:52:53.420Z,51.11
2023-06-18T02:55:19.845Z,51.23
2023-06-18T02:57:46.789Z,51.11
2023-06-18T03:00:14.341Z,51.49
2023-06-18T03:02:44.220Z,51.84
2023-06-18T03:05:15.962Z,51.84
2023-06-18T03:07:42.427Z,51.67
2023-06-18T03:10:10.729Z,51.57
2023-06-18T03:12:38.028Z,51.57
2023-06-18T03:15:15.785Z,51.99
2023-06-18T03:17:44.354Z,52.04
2023-06-18T03:20:11.502Z,51.90
2023-06-18T03:22:38.372Z,52.20
2023-06-18T03:25:06.452Z,52.19
2023-06-18T03:27:32.999Z,52.33
2023-06-18T03:29:59.540Z,52.22
2023-06-18T03:32:28.643Z,52.05
2023-06-18T03:34:55.166Z,52.17
2023-06-18T03:37:22.408Z,52.02
2023-06-18T03:39:48.840Z,52.30
2023-06-18T03:42:15.238Z,52.13
2023-06-18T03:44:41.664Z,52.11
2023-06-18T03:47:08.821Z,52.15
2023-06-18T03:49:35.832Z,52.31
2023-06-18T03:52:02.399Z,52.42
2023-06-18T03:54:28.805Z,52.46
2023-06-18T03:56:59.129Z,52.42
2023-06-18T03:59:25.576Z,52.46
2023-06-18T04:01:52.514Z,51.97
2023-06-18T04:04:19.556Z,52.36
2023-06-18T04:06:46.050Z,52.39
2023-06-18T04:09:13.241Z,52.44
2023-06-18T04:11:40.036Z,52.30
2023-06-18T04:14:06.678Z,52.46
2023-06-18T04:16:33.950Z,52.79
2023-06-18T04:19:00.959Z,52.70
2023-06-18T04:21:27.439Z,52.88
2023-06-18T04:23:55.471Z,52.75
2023-06-18T04:26:23.885Z,52.84
2023-06-18T04:28:51.655Z,52.44
2023-06-18T04:31:18.577Z,52.43
2023-06-18T04:33:45.032Z,52.84
2023-06-18T04:36:11.744Z,52.57
2023-06-18T04:38:40.062Z,52.72
2023-06-18T04:41:06.988Z,52.58
2023-06-18T04:43:34.951Z,52.16
2023-06-18T04:46:01.471Z,52.16
2023-06-18T04:48:28.567Z,52.48
2023-06-18T04:50:55.016Z,52.18
2023-06-18T04:53:22.664Z,52.04
2023-06-18T04:55:49.562Z,51.72
2023-06-18T04:58:16.025Z,51.78
2023-06-18T05:00:45.131Z,52.16
2023-06-18T05:03:12.423Z,52.54
2023-06-18T05:05:38.949Z,52.26
2023-06-18T05:08:06.403Z,52.01
2023-06-18T05:10:34.729Z,51.93
2023-06-18T05:13:01.157Z,51.00
2023-06-18T05:15:28.042Z,50.58
2023-06-18T05:17:54.544Z,50.64
2023-06-18T05:20:21.892Z,50.50
2023-06-18T05:22:48.577Z,50.44
2023-06-18T05:25:16.164Z,50.06
2023-06-18T05:27:43.206Z,50.15
2023-06-18T05:30:09.828Z,49.79
2023-06-18T05:32:36.237Z,48.94
2023-06-18T05:35:07.033Z,48.51
2023-06-18T05:37:38.774Z,48.00
2023-06-18T05:40:09.206Z,46.96
2023-06-18T05:42:36.933Z,46.30
2023-06-18T05:45:04.070Z,46.17
2023-06-18T05:47:30.590Z,45.78
2023-06-18T05:49:58.356Z,45.37
2023-06-18T05:52:26.367Z,45.14
2023-06-18T05:54:52.765Z,44.60
2023-06-18T05:57:20.294Z,44.28
2023-06-18T05:59:48.416Z,44.13
2023-06-18T06:02:16.585Z,44.00
2023-06-18T06:04:45.977Z,44.34
2023-06-18T06:07:13.491Z,44.83
2023-06-18T06:09:40.191Z,44.80
2023-06-18T06:12:07.139Z,44.74
2023-06-18T06:14:34.156Z,44.45
2023-06-18T06:17:01.092Z,44.23
2023-06-18T06:19:27.684Z,44.21
2023-06-18T06:21:54.117Z,43.46
2023-06-18T06:24:22.143Z,43.89
2023-06-18T06:26:48.643Z,43.60
2023-06-18T06:29:15.237Z,43.66
2023-06-18T06:31:41.644Z,43.35
2023-06-18T06:34:08.265Z,43.61
2023-06-18T06:36:37.042Z,42.97
2023-06-18T06:39:04.208Z,43.03
2023-06-18T06:41:30.885Z,43.00
2023-06-18T06:44:01.475Z,43.06
2023-06-18T06:46:35.923Z,42.23
2023-06-18T06:49:18.890Z,41.56
2023-06-18T06:51:57.356Z,41.76
2023-06-18T06:54:24.108Z,41.68
2023-06-18T06:56:50.565Z,41.56
2023-06-18T06:59:17.022Z,41.45
2023-06-18T07:01:46.336Z,41.41
2023-06-18T07:04:14.890Z,41.32
2023-06-18T07:06:41.512Z,41.49
2023-06-18T07:09:08.306Z,41.24
2023-06-18T07:11:37.609Z,40.93
2023-06-18T07:14:04.637Z,40.80
2023-06-18T07:16:31.110Z,40.38
2023-06-18T07:18:57.552Z,39.63
2023-06-18T07:21:23.954Z,39.41
2023-06-18T07:23:50.388Z,39.51
2023-06-18T07:26:16.888Z,39.19
2023-06-18T07:28:43.265Z,39.35
2023-06-18T07:31:09.702Z,39.50
2023-06-18T07:33:36.110Z,38.00
2023-06-18T07:36:02.587Z,38.24
2023-06-18T07:38:28.962Z,38.02
2023-06-18T07:40:55.492Z,38.45
2023-06-18T07:43:21.956Z,38.78
2023-06-18T07:45:48.364Z,38.68
2023-06-18T07:48:15.480Z,38.89
2023-06-18T07:50:42.276Z,37.57
2023-06-18T07:53:08.696Z,37.28
2023-06-18T07:55:35.137Z,37.70
2023-06-18T07:58:01.512Z,37.56
2023-06-18T08:00:27.904Z,38.00
2023-06-18T08:02:54.457Z,37.92
2023-06-18T08:05:21.069Z,35.55
2023-06-18T08:07:47.526Z,34.66
2023-06-18T08:10:13.940Z,34.03
2023-06-18T08:12:40.393Z,34.06
2023-06-18T08:15:07.235Z,32.72
2023-06-18T08:17:33.682Z,32.99
2023-06-18T08:20:00.092Z,32.82
2023-06-18T08:22:27.128Z,32.99
2023-06-18T08:24:53.509Z,32.37
2023-06-18T08:27:20.141Z,32.24
2023-06-18T08:29:46.614Z,31.91
2023-06-18T08:32:14.532Z,31.57
2023-06-18T08:34:44.045Z,31.62
2023-06-18T08:37:13.855Z,31.71
2023-06-18T08:39:40.302Z,32.36
2023-06-18T08:42:07.635Z,31.62
2023-06-18T08:44:35.266Z,32.59
2023-06-18T08:47:04.616Z,32.38
2023-06-18T08:49:32.785Z,31.27
2023-06-18T08:52:03.413Z,31.12
2023-06-18T08:54:34.259Z,31.15
2023-06-18T08:57:12.674Z,31.05
2023-06-18T08:59:39.602Z,30.73
2023-06-18T09:02:06.809Z,29.51
2023-06-18T09:04:36.778Z,28.70
2023-06-18T09:07:03.921Z,28.86
2023-06-18T09:09:30.782Z,28.97
2023-06-18T09:11:58.212Z,28.36
2023-06-18T09:14:25.840Z,28.17
2023-06-18T09:16:54.158Z,27.74
2023-06-18T09:19:21.379Z,27.36
2023-06-18T09:21:48.051Z,27.38
2023-06-18T09:24:20.115Z,27.31
2023-06-18T09:26:48.472Z,26.40
2023-06-18T09:29:14.972Z,26.19
2023-06-18T09:31:47.405Z,26.27
2023-06-18T09:34:21.028Z,25.37
2023-06-18T09:36:49.303Z,26.95
2023-06-18T09:39:20.243Z,27.54
2023-06-18T09:41:47.920Z,27.72
2023-06-18T09:44:18.435Z,27.55
2023-06-18T09:46:49.990Z,27.56
2023-06-18T09:49:19.468Z,27.73
2023-06-18T09:51:47.528Z,27.21
2023-06-18T09:54:13.945Z,26.91
2023-06-18T09:56:56.352Z,26.48
2023-06-18T09:59:24.244Z,26.41
2023-06-18T10:01:51.065Z,26.62
2023-06-18T10:04:20.911Z,26.06
2023-06-18T10:07:06.414Z,26.49
2023-06-18T10:09:34.305Z,26.17
2023-06-18T10:12:02.663Z,26.40
2023-06-18T10:14:30.176Z,27.18
2023-06-18T10:17:05.761Z,27.07
2023-06-18T10:19:45.782Z,26.33
2023-06-18T10:22:13.589Z,26.79
2023-06-18T10:25:08.029Z,26.64
2023-06-18T10:27:36.114Z,26.33
2023-06-18T10:30:03.899Z,27.10
2023-06-18T10:32:32.525Z,27.25
2023-06-18T10:35:09.564Z,27.07
2023-06-18T10:37:37.814Z,26.61
2023-06-18T10:40:04.912Z,26.90
2023-06-18T10:42:33.517Z,27.27
2023-06-18T10:45:10.228Z,26.86
2023-06-18T10:47:37.335Z,26.95
2023-06-18T10:50:03.816Z,26.87
2023-06-18T10:52:32.093Z,26.67
2023-06-18T10:55:37.172Z,26.40
2023-06-18T10:58:06.155Z,25.63
2023-06-18T11:00:36.479Z,25.95
2023-06-18T11:03:13.176Z,25.44
2023-06-18T11:05:42.416Z,25.64
2023-06-18T11:08:10.966Z,25.92
2023-06-18T11:10:48.267Z,26.57
2023-06-18T11:13:15.759Z,26.43
2023-06-18T11:16:01.861Z,26.14
2023-06-18T11:18:30.146Z,26.45
2023-06-18T11:20:57.291Z,26.06
2023-06-18T11:23:24.689Z,25.82
2023-06-18T11:25:51.839Z,25.49
2023-06-18T11:28:18.554Z,25.63
2023-06-18T11:31:04.123Z,25.42
2023-06-18T11:33:31.525Z,25.78
2023-06-18T11:36:08.847Z,25.72
2023-06-18T11:38:35.420Z,25.37
2023-06-18T11:41:01.981Z,25.28
2023-06-18T11:43:43.706Z,25.02
2023-06-18T11:46:25.470Z,24.99
2023-06-18T11:48:53.335Z,25.01
2023-06-18T11:51:20.262Z,24.83
2023-06-18T11:53:47.145Z,24.72
2023-06-18T11:56:13.775Z,25.33
2023-06-18T11:58:40.338Z,25.44
2023-06-18T12:01:06.880Z,24.98
2023-06-18T12:03:37.072Z,25.10
2023-06-18T12:06:16.158Z,24.89
2023-06-18T12:08:46.797Z,24.99
2023-06-18T12:11:21.620Z,24.88
2023-06-18T12:13:51.699Z,24.97
2023-06-18T12:16:25.487Z,25.79
2023-06-18T12:18:59.185Z,25.04
2023-06-18T12:21:26.155Z,25.45
2023-06-18T12:23:52.737Z,25.26
2023-06-18T12:26:19.222Z,25.19
2023-06-18T12:28:45.633Z,24.40
2023-06-18T12:31:12.546Z,25.00
2023-06-18T12:33:42.072Z,25.18
2023-06-18T12:36:08.496Z,25.63
2023-06-18T12:38:47.019Z,26.25
2023-06-18T12:41:24.477Z,26.01
2023-06-18T12:43:53.416Z,25.87
2023-06-18T12:46:27.313Z,26.12
2023-06-18T12:48:58.392Z,26.24
2023-06-18T12:51:44.676Z,26.15
2023-06-18T12:54:24.276Z,26.20
2023-06-18T12:56:55.463Z,26.41
2023-06-18T12:59:24.255Z,26.44
2023-06-18T13:01:51.432Z,26.47
2023-06-18T13:04:20.662Z,26.43
2023-06-18T13:06:48.512Z,26.48
2023-06-18T13:09:14.896Z,26.20
2023-06-18T13:11:41.350Z,25.60
2023-06-18T13:14:18.207Z,26.52
2023-06-18T13:16:48.809Z,25.97
2023-06-18T13:19:16.959Z,26.67
2023-06-18T13:21:43.466Z,26.70
2023-06-18T13:24:09.943Z,26.74
2023-06-18T13:26:36.463Z,26.91
2023-06-18T13:29:04.105Z,26.88
2023-06-18T13:31:30.500Z,26.95
2023-06-18T13:33:57.264Z,27.40
2023-06-18T13:36:23.652Z,27.35
2023-06-18T13:38:50.358Z,26.58
2023-06-18T13:41:16.767Z,26.77
2023-06-18T13:43:43.216Z,27.02
2023-06-18T13:46:09.644Z,27.64
2023-06-18T13:48:36.536Z,27.92
2023-06-18T13:51:02.995Z,26.87
2023-06-18T13:53:29.460Z,26.53
2023-06-18T13:55:55.858Z,26.97
2023-06-18T13:58:22.435Z,27.84
2023-06-18T14:00:49.010Z,28.29
2023-06-18T14:03:15.464Z,26.96
2023-06-18T14:05:42.634Z,27.70
2023-06-18T14:08:09.154Z,27.63
2023-06-18T14:10:35.623Z,27.41
2023-06-18T14:13:02.054Z,27.83
2023-06-18T14:15:28.561Z,27.70
2023-06-18T14:17:55.004Z,27.81
2023-06-18T14:20:21.508Z,27.76
2023-06-18T14:22:49.032Z,28.04
2023-06-18T14:25:16.338Z,28.48
2023-06-18T14:27:42.912Z,28.52
2023-06-18T14:30:11.721Z,28.51
2023-06-18T14:32:39.382Z,28.54
2023-06-18T14:35:06.415Z,28.19
2023-06-18T14:37:32.803Z,27.33
2023-06-18T14:39:59.193Z,27.82
2023-06-18T14:42:26.394Z,27.58
2023-06-18T14:44:52.791Z,27.95
2023-06-18T14:47:19.234Z,27.95
2023-06-18T14:49:45.873Z,27.26
2023-06-18T14:52:12.262Z,27.54
2023-06-18T14:54:40.443Z,27.38
2023-06-18T14:57:07.128Z,28.20
2023-06-18T14:59:33.571Z,28.96
2023-06-18T15:01:59.964Z,27.92
2023-06-18T15:04:26.484Z,27.48
2023-06-18T15:06:52.906Z,27.22
2023-06-18T15:13:43.811Z,29.58
2023-06-18T15:16:10.246Z,29.73
2023-06-18T15:18:36.590Z,29.50
2023-06-18T15:21:02.970Z,29.47
2023-06-18T15:23:29.347Z,29.63
2023-06-18T15:25:56.150Z,29.99
2023-06-18T15:28:22.570Z,30.17
2023-06-18T15:30:48.970Z,30.84
2023-06-18T15:33:15.430Z,31.12
2023-06-18T15:35:41.825Z,30.21
2023-06-18T15:38:08.206Z,30.85
2023-06-18T15:40:34.573Z,31.75
2023-06-18T15:43:00.967Z,31.93
2023-06-18T15:45:27.649Z,31.67
2023-06-18T15:47:54.249Z,31.19
2023-06-18T15:50:20.750Z,30.87
2023-06-18T15:52:47.210Z,30.67
2023-06-18T15:55:13.645Z,30.84
2023-06-18T15:57:40.287Z,31.64
2023-06-18T16:00:08.072Z,32.24
2023-06-18T16:02:37.293Z,32.43
2023-06-18T16:05:22.200Z,31.57
2023-06-18T16:07:48.789Z,31.13
2023-06-18T16:10:15.646Z,31.05
2023-06-18T16:12:42.007Z,31.05
2023-06-18T16:15:08.991Z,32.22
2023-06-18T16:17:35.367Z,31.43
2023-06-18T16:20:01.827Z,31.64
2023-06-18T16:22:28.227Z,30.33
2023-06-18T16:24:54.596Z,30.75
2023-06-18T16:27:20.960Z,30.90
2023-06-18T16:29:47.346Z,30.46
2023-06-18T16:32:13.767Z,31.59
2023-06-18T16:34:40.710Z,32.08
2023-06-18T16:37:07.372Z,30.58
2023-06-18T16:39:34.556Z,30.48
2023-06-18T16:42:01.001Z,31.25
2023-06-18T16:44:27.388Z,30.82
2023-06-18T16:46:53.814Z,31.07
2023-06-18T16:49:20.189Z,31.25
2023-06-18T16:51:46.664Z,30.95
2023-06-18T16:54:13.053Z,31.21
2023-06-18T16:56:39.483Z,31.36
2023-06-18T16:59:06.820Z,31.16
2023-06-18T17:01:33.301Z,31.28
2023-06-18T17:04:02.435Z,31.53
2023-06-18T17:06:28.880Z,31.71
2023-06-18T17:08:55.401Z,31.86
2023-06-18T17:11:22.553Z,31.55
2023-06-18T17:13:48.990Z,31.68
2023-06-18T17:16:15.614Z,31.93
2023-06-18T17:18:42.099Z,31.62
2023-06-18T17:21:08.754Z,31.59
2023-06-18T17:23:35.238Z,31.66
2023-06-18T17:26:01.905Z,31.79
2023-06-18T17:28:28.271Z,31.90
2023-06-18T17:30:54.711Z,31.84
2023-06-18T17:33:21.200Z,31.68
2023-06-18T17:35:47.570Z,31.82
2023-06-18T17:38:13.987Z,31.67
2023-06-18T17:40:42.250Z,31.90
2023-06-18T17:43:09.692Z,31.95
2023-06-18T17:45:36.389Z,31.93
2023-06-18T17:48:02.945Z,32.09
2023-06-18T17:50:29.522Z,32.08
2023-06-18T17:52:55.981Z,32.38
2023-06-18T17:55:22.650Z,32.23
2023-06-18T17:57:49.310Z,32.16
2023-06-18T18:00:16.020Z,32.11
2023-06-18T18:02:42.474Z,31.93
2023-06-18T18:05:09.065Z,32.05
2023-06-18T18:07:35.456Z,32.21
2023-06-18T18:10:01.897Z,32.22
2023-06-18T18:12:28.380Z,32.21
2023-06-18T18:14:57.475Z,32.36
2023-06-18T18:17:24.115Z,32.18
2023-06-18T18:19:50.777Z,32.41
2023-06-18T18:22:19.151Z,32.33
2023-06-18T18:24:46.236Z,32.08
2023-06-18T18:27:13.862Z,32.16
2023-06-18T18:29:40.261Z,32.22
2023-06-18T18:32:07.150Z,32.31
2023-06-18T18:34:33.595Z,32.29
2023-06-18T18:37:00.103Z,32.20
2023-06-18T18:39:26.527Z,32.25
2023-06-18T18:41:52.901Z,32.51
2023-06-18T18:44:19.306Z,32.23
2023-06-18T18:46:45.762Z,32.38
2023-06-18T18:49:12.170Z,32.17
2023-06-18T18:51:38.522Z,32.32
2023-06-18T18:54:04.995Z,32.15
2023-06-18T18:56:31.469Z,32.13
2023-06-18T18:58:59.972Z,31.97
2023-06-18T19:01:26.358Z,32.18
2023-06-18T19:03:52.747Z,32.35
2023-06-18T19:06:19.113Z,32.40
2023-06-18T19:08:45.610Z,32.35
2023-06-18T19:11:11.976Z,32.56
2023-06-18T19:13:38.416Z,32.41
2023-06-18T19:16:04.861Z,32.39
2023-06-18T19:18:33.389Z,32.43
2023-06-18T19:21:00.296Z,32.36
2023-06-18T19:23:26.673Z,32.66
2023-06-18T19:25:53.027Z,32.55
2023-06-18T19:28:19.410Z,32.48
2023-06-18T19:30:45.836Z,32.61
2023-06-18T19:33:12.303Z,32.64
2023-06-18T19:35:38.698Z,32.67
2023-06-18T19:38:05.090Z,32.81
2023-06-18T19:40:31.528Z,32.68
2023-06-18T19:42:57.989Z,32.85
2023-06-18T19:45:24.388Z,32.91
2023-06-18T19:47:50.852Z,32.95
2023-06-18T19:50:17.873Z,33.14
2023-06-18T19:52:44.252Z,33.16
2023-06-18T19:55:10.719Z,33.07
2023-06-18T19:57:37.119Z,33.24
2023-06-18T20:00:03.976Z,33.42
2023-06-18T20:02:39.297Z,33.40
2023-06-18T20:05:06.635Z,33.25
2023-06-18T20:07:33.014Z,33.26
2023-06-18T20:09:59.543Z,33.47
2023-06-18T20:12:25.960Z,33.33
2023-06-18T20:14:52.330Z,33.23
2023-06-18T20:17:23.156Z,33.38
2023-06-18T20:19:50.172Z,33.37
2023-06-18T20:22:17.357Z,33.11
2023-06-18T20:24:44.269Z,33.42
2023-06-18T20:27:10.922Z,33.56
2023-06-18T20:29:37.550Z,33.35
2023-06-18T20:32:04.778Z,33.51
2023-06-18T20:34:31.185Z,33.53
2023-06-18T20:36:58.626Z,33.44
2023-06-18T20:39:25.343Z,33.47
2023-06-18T20:41:51.744Z,33.62
2023-06-18T20:44:19.014Z,33.60
2023-06-18T20:46:45.392Z,33.88
2023-06-18T20:49:13.104Z,33.91
2023-06-18T20:51:40.586Z,33.79
2023-06-18T20:54:07.042Z,33.79
2023-06-18T20:56:34.012Z,33.81
2023-06-18T20:59:00.521Z,33.88
2023-06-18T21:01:30.203Z,33.84
2023-06-18T21:03:56.845Z,33.97
2023-06-18T21:06:23.237Z,34.17
2023-06-18T21:08:49.846Z,34.03
2023-06-18T21:11:18.260Z,34.32
2023-06-18T21:13:46.876Z,34.37
2023-06-18T21:16:14.425Z,34.46
2023-06-18T21:18:41.186Z,34.48
2023-06-18T21:21:07.936Z,34.79
2023-06-18T21:23:34.455Z,34.79
2023-06-18T21:26:00.980Z,34.65
2023-06-18T21:28:27.762Z,34.73
2023-06-18T21:30:54.596Z,35.04
2023-06-18T21:33:21.072Z,35.66
2023-06-18T21:35:48.794Z,35.47
2023-06-18T21:38:15.556Z,35.48
2023-06-18T21:40:41.927Z,35.82
2023-06-18T21:43:08.455Z,35.70
2023-06-18T21:45:35.051Z,35.77
2023-06-18T21:48:01.619Z,35.72
2023-06-18T21:50:28.086Z,35.77
2023-06-18T21:52:54.502Z,36.44
2023-06-18T21:55:20.986Z,36.04
2023-06-18T21:57:47.454Z,36.28
2023-06-18T22:00:14.629Z,36.62
2023-06-18T22:02:41.212Z,37.41
2023-06-18T22:05:07.914Z,36.96
2023-06-18T22:07:34.348Z,36.40
2023-06-18T22:10:00.751Z,36.33
2023-06-18T22:12:27.297Z,36.39
2023-06-18T22:14:53.693Z,36.49
2023-06-18T22:17:20.797Z,36.88
2023-06-18T22:19:47.248Z,36.63
2023-06-18T22:22:13.632Z,36.02
2023-06-18T22:24:40.086Z,35.97
2023-06-18T22:27:07.216Z,35.95
2023-06-18T22:29:33.610Z,35.78
2023-06-18T22:31:59.982Z,35.82
2023-06-18T22:34:40.558Z,36.06
2023-06-18T22:37:08.537Z,36.11
2023-06-18T22:39:34.918Z,36.37
2023-06-18T22:42:02.737Z,36.53
2023-06-18T22:44:29.192Z,36.38
2023-06-18T22:46:55.616Z,36.20
2023-06-18T22:49:21.982Z,36.75
2023-06-18T22:51:54.623Z,36.93
2023-06-18T22:54:21.002Z,37.22
2023-06-18T22:56:47.382Z,37.27
2023-06-18T22:59:13.830Z,37.59
2023-06-18T23:01:41.212Z,37.60
2023-06-18T23:04:07.676Z,37.74
2023-06-18T23:06:34.134Z,37.61
2023-06-18T23:09:00.597Z,37.59
2023-06-18T23:11:26.995Z,37.59
2023-06-18T23:13:53.451Z,37.50
2023-06-18T23:16:20.057Z,37.75
2023-06-18T23:18:46.464Z,37.82
2023-06-18T23:21:13.154Z,37.65
2023-06-18T23:23:39.758Z,37.82
2023-06-18T23:26:06.207Z,37.90
2023-06-18T23:28:35.726Z,37.96
2023-06-18T23:31:04.569Z,38.05
2023-06-18T23:33:31.672Z,38.12
2023-06-18T23:35:58.223Z,38.06
2023-06-18T23:38:25.006Z,38.08
2023-06-18T23:40:52.477Z,38.13
2023-06-18T23:43:20.137Z,38.35
2023-06-18T23:45:46.903Z,38.35
2023-06-18T23:48:13.327Z,38.24
2023-06-18T23:50:41.265Z,38.47
2023-06-18T23:53:07.946Z,38.62
2023-06-18T23:55:34.313Z,38.86
2023-06-18T23:58:02.610Z,39.16
